Time;durP1;ratioP1;P1;durP2;ratioP2;P2;SDS_P1;SDS_P2;PMS_P1;PMS_P2;Temp;Humidity;BMP_temperature;BMP_pressure;BME280_temperature;BME280_humidity;BME280_pressure;Samples;Min_cycle;Max_cycle;Signal;HPM_P1;HPM_P2
2023/01/16 00:07:51;;;;;;;3.2;1.3;;;;;;;5;83;97900;;;;
2023/01/16 00:18:51;;;;;;;4.4;1.8;;;;;;;5;82.8;97900;;;;
2023/01/16 00:29:51;;;;;;;4.4;1.8;;;;;;;4.9;82.6;97890;;;;
2023/01/16 00:40:51;;;;;;;4.4;1.8;;;;;;;4.9;82.5;97890;;;;
2023/01/16 00:51:51;;;;;;;4.2;1.6;;;;;;;4.6;82.3;97880;;;;
2023/01/16 01:01:51;;;;;;;4.2;1.6;;;;;;;4.4;82.3;97890;;;;
2023/01/16 01:12:51;;;;;;;4.2;1.6;;;;;;;4.2;82.3;97890;;;;
2023/01/16 01:22:51;;;;;;;2.6;1.2;;;;;;;3.8;82.3;97880;;;;
2023/01/16 01:32:51;;;;;;;2.6;1.2;;;;;;;3.5;82.2;97870;;;;
2023/01/16 01:43:51;;;;;;;2.6;1.2;;;;;;;3.2;83.1;97860;;;;
2023/01/16 01:53:51;;;;;;;2.3;1.1;;;;;;;3;83.8;97870;;;;
2023/01/16 02:03:51;;;;;;;2.3;1.1;;;;;;;2.9;84.9;97860;;;;
2023/01/16 02:14:51;;;;;;;2.3;1.1;;;;;;;2.7;84.7;97840;;;;
2023/01/16 02:25:51;;;;;;;2.5;0.9;;;;;;;2.5;84.8;97820;;;;
2023/01/16 02:36:51;;;;;;;2.5;0.9;;;;;;;2.4;85.7;97810;;;;
2023/01/16 02:46:51;;;;;;;2.5;0.9;;;;;;;2.4;86;97810;;;;
2023/01/16 02:57:51;;;;;;;6.5;3.2;;;;;;;2.4;86.1;97810;;;;
2023/01/16 03:07:51;;;;;;;6.5;3.2;;;;;;;2.3;86.8;97820;;;;
2023/01/16 03:17:52;;;;;;;6.5;3.2;;;;;;;2.1;86.5;97800;;;;
2023/01/16 03:28:51;;;;;;;3.7;1.4;;;;;;;1.9;86.4;97790;;;;
2023/01/16 03:39:51;;;;;;;3.7;1.4;;;;;;;1.8;87.1;97790;;;;
2023/01/16 03:49:51;;;;;;;4.5;3;;;;;;;1.8;87.9;97800;;;;
2023/01/16 03:59:51;;;;;;;4.5;3;;;;;;;1.7;87.9;97800;;;;
2023/01/16 04:09:51;;;;;;;4.5;3;;;;;;;1.7;88.1;97780;;;;
2023/01/16 04:20:51;;;;;;;4.9;1.2;;;;;;;1.7;88.3;97760;;;;
2023/01/16 04:31:51;;;;;;;4.9;1.2;;;;;;;1.8;88.5;97760;;;;
2023/01/16 04:42:51;;;;;;;4.9;1.2;;;;;;;1.9;89;97760;;;;
2023/01/16 04:53:51;;;;;;;4.5;1.8;;;;;;;2.1;89;97750;;;;
2023/01/16 05:03:51;;;;;;;4.5;1.8;;;;;;;2.1;88.7;97720;;;;
2023/01/16 05:14:51;;;;;;;4.5;1.8;;;;;;;2.2;88.6;97720;;;;
2023/01/16 05:25:53;;;;;;;4.9;2.3;;;;;;;2.3;88.3;97700;;;;
2023/01/16 05:36:51;;;;;;;4.9;2.3;;;;;;;2.4;88.1;97690;;;;
2023/01/16 05:47:51;;;;;;;6.4;3.9;;;;;;;2.5;88.2;97670;;;;
2023/01/16 05:57:51;;;;;;;6.4;3.9;;;;;;;2.5;88;97670;;;;
2023/01/16 06:08:51;;;;;;;6.4;3.9;;;;;;;2.7;88;97660;;;;
2023/01/16 06:18:51;;;;;;;6.7;2.9;;;;;;;2.4;87.5;97660;;;;
2023/01/16 06:28:51;;;;;;;6.7;2.9;;;;;;;2.6;87.6;97650;;;;
2023/01/16 06:38:51;;;;;;;6.7;2.9;;;;;;;2.5;87.4;97650;;;;
2023/01/16 06:48:51;;;;;;;13.5;6.3;;;;;;;2.6;87.4;97650;;;;
2023/01/16 06:58:51;;;;;;;13.5;6.3;;;;;;;2.6;87.6;97650;;;;
2023/01/16 07:09:51;;;;;;;13.5;6.3;;;;;;;2.7;87.4;97640;;;;
2023/01/16 07:30:51;;;;;;;10;5.9;;;;;;;2.9;87.4;97620;;;;
2023/01/16 07:40:51;;;;;;;10;5.9;;;;;;;3.1;87.6;97620;;;;
2023/01/16 07:50:51;;;;;;;10.3;5.3;;;;;;;3.3;87.7;97620;;;;
2023/01/16 08:01:52;;;;;;;10.3;5.3;;;;;;;3.2;87.1;97610;;;;
2023/01/16 08:12:51;;;;;;;10.3;5.3;;;;;;;3.4;87.3;97590;;;;
2023/01/16 08:22:52;;;;;;;20.1;13.9;;;;;;;3.7;87.3;97570;;;;
2023/01/16 08:32:51;;;;;;;20.1;13.9;;;;;;;3.7;86.5;97550;;;;
2023/01/16 08:53:51;;;;;;;22.8;14.4;;;;;;;3.8;86.8;97510;;;;
2023/01/16 09:04:51;;;;;;;22.8;14.4;;;;;;;4.1;86.9;97500;;;;
2023/01/16 09:14:51;;;;;;;22.8;14.4;;;;;;;4.6;85.9;97480;;;;
2023/01/16 09:25:51;;;;;;;10.8;6.8;;;;;;;5;84.4;97440;;;;
2023/01/16 09:36:52;;;;;;;10.8;6.8;;;;;;;5.3;82.5;97420;;;;
2023/01/16 09:46:52;;;;;;;10.8;6.8;;;;;;;5.3;81.5;97390;;;;
2023/01/16 09:58:56;;;;;;;7.3;4.7;;;;;;;5.5;82.4;97370;;;;
2023/01/16 10:07:51;;;;;;;7.3;4.7;;;;;;;5.8;81.7;97330;;;;
2023/01/16 10:17:52;;;;;;;9.7;6.5;;;;;;;6.2;80.6;97320;;;;
2023/01/16 10:28:51;;;;;;;9.7;6.5;;;;;;;6.2;79.8;97290;;;;
2023/01/16 10:38:55;;;;;;;9.7;6.5;;;;;;;6.2;79.2;97270;;;;
2023/01/16 10:49:51;;;;;;;10.9;7.8;;;;;;;6.4;79.5;97240;;;;
2023/01/16 11:00:52;;;;;;;10.9;7.8;;;;;;;6.3;80;97210;;;;
2023/01/16 11:10:51;;;;;;;10.9;7.8;;;;;;;6.3;80;97190;;;;
2023/01/16 11:21:51;;;;;;;12.1;8.2;;;;;;;6.4;79.6;97170;;;;
2023/01/16 11:31:54;;;;;;;12.1;8.2;;;;;;;6.3;80.2;97160;;;;
2023/01/16 11:53:51;;;;;;;13;9;;;;;;;6.9;80.1;97120;;;;
2023/01/16 12:05:53;;;;;;;13;9;;;;;;;6.7;80.7;97090;;;;
2023/01/16 12:15:52;;;;;;;13;9;;;;;;;6.6;81;97060;;;;
2023/01/16 12:25:52;;;;;;;17.6;12.8;;;;;;;6.4;81.2;97040;;;;
2023/01/16 12:35:52;;;;;;;17.6;12.8;;;;;;;6.4;81.4;97020;;;;
2023/01/16 12:46:51;;;;;;;15.5;11;;;;;;;6.5;81.5;97010;;;;
2023/01/16 12:57:51;;;;;;;15.5;11;;;;;;;6.4;81.4;97000;;;;
2023/01/16 13:08:59;;;;;;;15.5;11;;;;;;;6.2;81.9;96990;;;;
2023/01/16 13:18:51;;;;;;;13.9;10.3;;;;;;;6.2;82.1;96960;;;;
2023/01/16 13:28:52;;;;;;;13.9;10.3;;;;;;;6.3;81.9;96940;;;;
2023/01/16 13:39:52;;;;;;;13.9;10.3;;;;;;;5.8;82.9;96920;;;;
2023/01/16 13:50:52;;;;;;;15.7;10.8;;;;;;;5.9;83;96890;;;;
2023/01/16 14:00:52;;;;;;;15.7;10.8;;;;;;;5.9;83.1;96870;;;;
2023/01/16 14:10:52;;;;;;;15.7;10.8;;;;;;;5.9;83.2;96860;;;;
2023/01/16 14:31:52;;;;;;;13.2;10.6;;;;;;;5.4;84.5;96840;;;;
2023/01/16 15:03:52;;;;;;;15;9.3;;;;;;;4.8;85.3;96800;;;;
2023/01/16 15:14:52;;;;;;;15;9.3;;;;;;;4.5;85.4;96780;;;;
2023/01/16 15:25:52;;;;;;;15.2;10.3;;;;;;;4.2;85.5;96770;;;;
2023/01/16 15:35:52;;;;;;;15.2;10.3;;;;;;;4;85.7;96740;;;;
2023/01/16 15:46:56;;;;;;;15.2;10.3;;;;;;;3.8;86.1;96710;;;;
2023/01/16 15:56:52;;;;;;;34;18.4;;;;;;;3.6;86.6;96700;;;;
2023/01/16 16:07:52;;;;;;;34;18.4;;;;;;;3.6;87.5;96690;;;;
2023/01/16 16:17:56;;;;;;;22.3;13.9;;;;;;;3.7;88.5;96670;;;;
2023/01/16 16:28:54;;;;;;;22.3;13.9;;;;;;;3.6;89;96650;;;;
2023/01/16 16:39:52;;;;;;;22.3;13.9;;;;;;;3.7;89;96640;;;;
2023/01/16 16:49:52;;;;;;;23.4;14.2;;;;;;;3.8;88.6;96620;;;;
2023/01/16 17:00:52;;;;;;;23.4;14.2;;;;;;;3.8;88.5;96590;;;;
2023/01/16 17:10:52;;;;;;;23.4;14.2;;;;;;;3.9;88.3;96580;;;;
2023/01/16 17:21:52;;;;;;;33.3;21.8;;;;;;;3.7;88.3;96570;;;;
2023/01/16 17:31:52;;;;;;;33.3;21.8;;;;;;;3.9;88.2;96560;;;;
2023/01/16 17:53:52;;;;;;;23.9;15.3;;;;;;;3.9;88.4;96530;;;;
2023/01/16 18:04:52;;;;;;;23.9;15.3;;;;;;;3.8;88.5;96530;;;;
2023/01/16 18:25:52;;;;;;;18.9;11.5;;;;;;;4.1;88.3;96510;;;;
2023/01/16 18:35:52;;;;;;;18.9;11.5;;;;;;;4.1;88.3;96500;;;;
2023/01/16 19:05:53;;;;;;;19.5;13.1;;;;;;;4;89.1;96430;;;;
2023/01/16 19:16:56;;;;;;;19.5;13.1;;;;;;;4.1;89;96390;;;;
2023/01/16 19:26:52;;;;;;;28.4;21;;;;;;;4;89.1;96370;;;;
2023/01/16 19:37:52;;;;;;;28.4;21;;;;;;;4.1;89;96350;;;;
2023/01/16 19:48:56;;;;;;;23.3;14.9;;;;;;;4.1;89;96320;;;;
2023/01/16 19:58:52;;;;;;;23.3;14.9;;;;;;;4;89.5;96320;;;;
2023/01/16 20:09:52;;;;;;;23.3;14.9;;;;;;;4;89.2;96310;;;;
2023/01/16 20:20:52;;;;;;;21.1;13.9;;;;;;;3.8;89.7;96300;;;;
2023/01/16 20:30:57;;;;;;;21.1;13.9;;;;;;;4;89.6;96280;;;;
2023/01/16 20:51:52;;;;;;;23.8;17.4;;;;;;;4.2;89;96270;;;;
2023/01/16 21:02:52;;;;;;;23.8;17.4;;;;;;;4.1;88.8;96270;;;;
2023/01/16 21:14:24;;;;;;;23.8;17.4;;;;;;;4.1;88.8;96240;;;;
2023/01/16 21:24:52;;;;;;;23.3;15.4;;;;;;;4.1;88.9;96230;;;;
2023/01/16 21:34:52;;;;;;;23.3;15.4;;;;;;;4;88.5;96230;;;;
2023/01/16 21:46:56;;;;;;;24.4;14.3;;;;;;;3.8;88.5;96250;;;;
2023/01/16 21:55:52;;;;;;;24.4;14.3;;;;;;;3.5;88.2;96210;;;;
2023/01/16 22:06:52;;;;;;;24.4;14.3;;;;;;;3.2;88.4;96200;;;;
2023/01/16 22:17:58;;;;;;;21.2;13.5;;;;;;;2.8;88.4;96200;;;;
2023/01/16 22:27:52;;;;;;;21.2;13.5;;;;;;;2.5;88.7;96200;;;;
2023/01/16 22:38:52;;;;;;;21.2;13.5;;;;;;;2.3;88.6;96210;;;;
2023/01/16 22:48:52;;;;;;;20.2;12.2;;;;;;;2.1;88.6;96210;;;;
2023/01/16 22:59:52;;;;;;;20.2;12.2;;;;;;;2;88.8;96190;;;;
2023/01/16 23:09:52;;;;;;;20.2;12.2;;;;;;;1.8;89.5;96180;;;;
2023/01/16 23:20:52;;;;;;;22.7;13.3;;;;;;;1.8;89.5;96160;;;;
2023/01/16 23:30:52;;;;;;;22.7;13.3;;;;;;;1.7;89.4;96170;;;;
2023/01/16 23:40:52;;;;;;;22.7;13.3;;;;;;;1.8;89.6;96150;;;;
2023/01/16 23:51:52;;;;;;;19.6;13.1;;;;;;;1.8;90;96170;;;;
